Thedford, Nebraska
Current Conditions -  °F | °C
As of 11:35 PM on Wednesday 26 Nov 2014 (Local Time) from KTIF Reporting Station
Overcast Overcast  
Wind Chill: 20°   Ceiling: 9000
Heat Index: 27°   Visibility: 10mi
Dew Point: 20°   Wind: 6mph
Humidity: 77%   Direction: 170°S
Pressure: 30.34"   Gusts: NA
Location:  41.98°N, 100.58°W
Report Text: KTIF 270535Z AUTO 17005KT 10SM SCT019 OVC090 M03/M07 A3034 RMK AO2 T10301066
Loading
Personal Weather Stations






























Interactive Weather Map New forecast layout! Learn more

10-Day Weather Forecast

Advertisements
Track Severe Weather on mobile